Catonsville, MD

12:56 PM EDT on May 26, 2015 (GMT -0400)
Ingleside & Woodsdale Catonsville | | Change Station
CLOSE
Current Station
Personal Weather Station
Location: Catonsville, MD
Elevation: 485 ft
Nearby Weather Stations

Elev 485 ft 39.28 °N, 76.73 °W | Updated 19 seconds ago

Partly Cloudy
Partly Cloudy
82.9 °F
Feels Like 86 °F
N
1.2
Wind Variable Wind from WNW
Gusts 4.0 mph

Today
High -- | Low -- °F
--% Chance of Precip.
Yesterday
High -- | Low -- °F
Precip. -- in
5:45 AM 8:22 PM
First Quarter, 59% visible
Pressure 30.21 in
Visibility 10.0 miles
Clouds Few 4400 ft
Scattered Clouds 11000 ft
Scattered Clouds 18000 ft
Mostly Cloudy 25000 ft
Heat Index 86 °F
Dew Point 68 °F
Humidity 61%
Rainfall 0.00 in
Snow Depth Not available.
UV 6 out of 12
Pollen 8.00 out of 12
Air Quality Not available.
Flu Activity Sporadic
METAR KBWI 261554Z 23009KT 10SM FEW044 SCT110 SCT180 BKN250 28/17 A3021 RMK AO2 SLP228 T02780172

More Conditions Fewer Conditions

Pressure 30.21 in
Visibility 10.0 miles
Clouds Few 4400 ft
Scattered Clouds 11000 ft
Scattered Clouds 18000 ft
Mostly Cloudy 25000 ft
Heat Index 86 °F
Dew Point 68 °F
Humidity 61%
Rainfall 0.00 in
Snow Depth Not available.
UV 6 out of 12
Pollen 8.00 out of 12
Air Quality Not available.
Flu Activity Sporadic
METAR KBWI 261554Z 23009KT 10SM FEW044 SCT110 SCT180 BKN250 28/17 A3021 RMK AO2 SLP228 T02780172

More Conditions Fewer Conditions

10-Day Weather Forecast

Almanac

Astronomy

May. 26, 2015 Rise Set
Actual Time
Civil Twilight
Nautical Twilight
Astronomical Twilight
Moon
Length of Visible Light
Length of Day
Tomorrow will be .
, % of the Moon is Illuminated

Today's Extremes

State Highs State Lows

Community

WunderPhotos

Upload Photos

1,824,370 photos uploaded!

WunderBlogs® & News

Nearby

Air Quality

  Air Quality AQ Index Pollutant
Not available.

Snow Depth

Station Depth Elevation

Earthquake Activity

City Distance Mag. Time & Date
Minimum magnitude displayed is 2.5.

Coastal Water Temperatures

Place Temperature

Stations

Nearby Weather Stations

Station Location Temp. Windchill Dew Point Humidity Wind Precip. Elev Updated Type